Hovedside
METAR-TAF:

METAR-TAF

Lufthavner :

Vadsø lufthavn

Vadsø, Norge

breddegrad: 70-04N, lengdegrad: 029-51E, høyde over havet: 3 m

Gjeldene værobservasjon

Denne rapporten ble laget for 37 minutter siden, klokken 14:20 UTC
Vind 13 kt fra Nord-nordøst
Temperatur -4°C
Luftfuktighet 68%
Trykk 1004 hPa
Sikt 10 km eller mer
Få skyer i en høyde av 1000 ft
Brutte skyer i en høyde av 7600 ft

METAR: ENVD 211420Z 03013KT 9999 FEW010 BKN076 M04/M09 Q1004

Tid: 15:57 (14:57 UTC)

Varsel

Denne rapporten ble laget for 57 minutter siden, klokken 14:00 UTC
Varsel gyldig fra 21. klokken 15 UTC til 21. klokken 24 UTC
Vind 12 kt fra Nord-nordøst
Sikt 10 km eller mer
Spredte skyer i en høyde av 2000 ft
Brutte skyer i en høyde av 3000 ft
lette snøbyger
Midlertidig
fra 21. klokken 15 UTC til 21. klokken 24 UTC
Sikt: 1200 m
i en høyde av 800 ft
snøbyger

TAF: ENVD 211400Z 2115/2124 03012KT 9999 -SHSN SCT020 BKN030 TEMPO 2115/2124 1200 SHSN VV008

Værobservasjoner og værvarsel for over 4000 flyplasser (METAR- og TAF-rapporter).

Tilgjengelige stasjoner er representert av de røde og gule prikkene på kartet.

Hold musepekeren over prikken for å se navnet på stasjonen.

Klikk så for å se værobservasjoner og -varsler.

For å forandre kartet kan du klikke på den grønne knappen med svart kryss for å zoome inn, på den grønne knappen med strek for å zoome ut, eller på de grønne pilene for å se tilstøtende kart.


METAR-TAF: